Time;durP1;ratioP1;P1;durP2;ratioP2;P2;SDS_P1;SDS_P2;PMS_P1;PMS_P2;Temp;Humidity;BMP_temperature;BMP_pressure;BME280_temperature;BME280_humidity;BME280_pressure;Samples;Min_cycle;Max_cycle;Signal;HPM_P1;HPM_P2
2022/05/31 00:02:04;;;;;;;5.85;5.15;;;;;;;18.85;100.00;94498.84;5115665;28;20203;-65
2022/05/31 00:04:29;;;;;;;10.90;5.50;;;;;;;18.87;100.00;94507.19;5115635;28;20294;-65
2022/05/31 00:06:55;;;;;;;10.98;4.93;;;;;;;18.86;100.00;94501.25;5115393;28;20262;-65
2022/05/31 00:09:21;;;;;;;15.18;4.57;;;;;;;18.77;100.00;94507.50;5115504;28;20200;-67
2022/05/31 00:11:47;;;;;;;7.78;4.45;;;;;;;18.83;100.00;94490.50;5115398;28;20176;-62
2022/05/31 00:14:14;;;;;;;7.57;4.63;;;;;;;18.74;100.00;94486.47;5096857;28;20199;-60
2022/05/31 00:16:39;;;;;;;11.07;4.93;;;;;;;18.89;100.00;94494.91;5096929;28;20274;-60
2022/05/31 00:19:06;;;;;;;4.97;3.95;;;;;;;18.60;100.00;94490.69;5096800;28;20408;-61
2022/05/31 00:21:41;;;;;;;7.22;3.90;;;;;;;18.57;100.00;94488.47;5115182;28;20716;-62
2022/05/31 00:24:10;;;;;;;7.63;3.85;;;;;;;18.86;100.00;94505.59;5114983;28;20260;-64
2022/05/31 00:26:38;;;;;;;9.27;4.80;;;;;;;18.81;100.00;94497.59;5115519;28;20675;-62
2022/05/31 00:29:03;;;;;;;8.50;4.57;;;;;;;18.79;100.00;94491.84;5114162;28;20202;-60
2022/05/31 00:31:29;;;;;;;8.93;5.13;;;;;;;18.61;100.00;94486.31;5096773;28;20637;-60
2022/05/31 00:33:55;;;;;;;11.52;5.03;;;;;;;18.60;100.00;94487.31;5114348;28;20198;-64
2022/05/31 00:36:21;;;;;;;6.65;5.00;;;;;;;18.38;100.00;94481.31;5096777;28;20180;-62
2022/05/31 00:38:46;;;;;;;12.15;4.80;;;;;;;18.59;100.00;94488.28;5114735;28;20244;-59
2022/05/31 00:41:23;;;;;;;11.93;5.63;;;;;;;18.73;100.00;94501.09;5085317;22;20669;-67
2022/05/31 00:43:52;;;;;;;11.75;5.15;;;;;;;18.71;100.00;94486.81;5094514;28;20568;-63
2022/05/31 00:46:21;;;;;;;10.98;5.05;;;;;;;18.49;100.00;94480.03;5094655;28;20192;-60
2022/05/31 00:48:55;;;;;;;9.95;5.30;;;;;;;18.57;100.00;94478.16;5094619;28;20568;-62
2022/05/31 00:51:23;;;;;;;10.57;5.47;;;;;;;18.65;100.00;94495.25;5076248;28;20188;-66
2022/05/31 00:53:56;;;;;;;13.48;5.70;;;;;;;18.94;100.00;94508.84;5094452;28;20211;-66
2022/05/31 00:56:25;;;;;;;9.75;5.05;;;;;;;18.91;100.00;94492.94;5094170;28;20233;-62
2022/05/31 00:59:01;;;;;;;6.63;4.80;;;;;;;18.95;100.00;94502.72;5094086;28;20196;-66
2022/05/31 01:01:28;;;;;;;7.63;6.07;;;;;;;18.89;100.00;94503.44;5094319;28;20585;-60
2022/05/31 01:03:55;;;;;;;10.15;5.57;;;;;;;18.69;100.00;94507.59;5093846;28;20216;-65
2022/05/31 01:06:21;;;;;;;8.98;5.45;;;;;;;18.52;100.00;94513.97;5075823;28;20184;-64
2022/05/31 01:08:47;;;;;;;10.60;4.82;;;;;;;18.30;100.00;94513.06;5093925;28;20674;-65
2022/05/31 01:11:16;;;;;;;9.88;5.57;;;;;;;18.20;100.00;94502.25;5094282;28;20192;-66
2022/05/31 01:13:42;;;;;;;6.50;4.53;;;;;;;17.99;100.00;94491.91;5093845;28;20226;-63
2022/05/31 01:16:10;;;;;;;7.03;4.88;;;;;;;17.95;100.00;94503.53;5094206;28;20626;-64
2022/05/31 01:18:36;;;;;;;10.30;5.38;;;;;;;18.09;100.00;94510.44;5093618;28;20272;-62
2022/05/31 01:21:03;;;;;;;10.02;4.95;;;;;;;18.10;100.00;94512.03;5094021;28;20212;-62
2022/05/31 01:23:46;;;;;;;9.27;5.38;;;;;;;18.09;100.00;94510.44;5093626;28;20200;-64
2022/05/31 01:26:14;;;;;;;6.07;4.88;;;;;;;18.02;100.00;94506.19;5093963;28;20204;-63
2022/05/31 01:28:58;;;;;;;9.25;4.90;;;;;;;18.10;100.00;94521.56;5093487;28;20300;-62
2022/05/31 01:31:32;;;;;;;11.52;5.00;;;;;;;18.15;100.00;94525.19;5075204;28;20268;-62
2022/05/31 01:34:09;;;;;;;10.00;5.30;;;;;;;18.08;100.00;94521.72;5093180;28;20204;-62
2022/05/31 01:36:41;;;;;;;9.00;5.50;;;;;;;17.88;100.00;94501.84;5075135;28;20258;-64
2022/05/31 01:39:15;;;;;;;7.60;4.40;;;;;;;17.88;100.00;94509.56;5093151;28;20192;-59
2022/05/31 01:41:56;;;;;;;8.20;4.97;;;;;;;17.93;100.00;94507.25;5093361;28;20641;-62
2022/05/31 01:44:25;;;;;;;6.78;4.95;;;;;;;18.10;100.00;94522.31;5092332;28;20219;-67
2022/05/31 01:46:54;;;;;;;9.80;4.72;;;;;;;18.09;100.00;94520.75;5093034;28;20184;-63
2022/05/31 01:49:22;;;;;;;8.80;5.10;;;;;;;17.98;100.00;94513.47;5092993;28;20204;-64
2022/05/31 01:51:49;;;;;;;6.03;4.63;;;;;;;17.89;100.00;94506.03;5093123;28;20276;-62
2022/05/31 01:54:17;;;;;;;8.45;5.40;;;;;;;17.89;100.00;94517.13;5093118;28;20192;-62
2022/05/31 01:56:46;;;;;;;12.23;5.68;;;;;;;17.80;100.00;94496.78;5074908;28;20275;-63
2022/05/31 01:59:12;;;;;;;9.13;5.78;;;;;;;17.63;100.00;94502.09;5093037;28;20219;-60
2022/05/31 02:01:39;;;;;;;11.02;5.20;;;;;;;17.63;100.00;94509.03;5092891;28;20191;-64
2022/05/31 02:04:05;;;;;;;7.82;5.03;;;;;;;17.48;100.00;94503.84;5092733;28;20210;-62
2022/05/31 02:06:37;;;;;;;6.93;4.78;;;;;;;17.32;100.00;94500.59;5092929;28;20176;-67
2022/05/31 02:09:05;;;;;;;7.47;4.65;;;;;;;17.16;100.00;94505.88;5092843;28;20234;-60
2022/05/31 02:11:31;;;;;;;6.18;5.00;;;;;;;17.10;100.00;94502.25;5092820;28;20168;-59
2022/05/31 02:14:00;;;;;;;12.77;5.90;;;;;;;17.02;100.00;94504.88;5092811;28;20196;-62
2022/05/31 02:16:27;;;;;;;7.70;4.60;;;;;;;16.99;100.00;94507.00;5092449;28;20188;-62
2022/05/31 02:21:37;;;;;;;10.57;4.68;;;;;;;16.81;100.00;94509.06;5092523;28;20211;-64
2022/05/31 02:24:04;;;;;;;5.95;4.88;;;;;;;16.80;100.00;94510.81;5092372;28;20228;-65
2022/05/31 02:26:30;;;;;;;10.02;4.82;;;;;;;16.82;100.00;94515.78;5092655;28;20203;-64
2022/05/31 02:28:55;;;;;;;6.97;4.53;;;;;;;16.83;100.00;94527.66;5092329;28;20192;-64
2022/05/31 02:31:21;;;;;;;6.10;4.65;;;;;;;16.72;100.00;94511.66;5074188;28;20251;-63
2022/05/31 02:33:47;;;;;;;6.13;5.20;;;;;;;16.64;100.00;94516.84;5092300;28;20192;-64
2022/05/31 02:36:12;;;;;;;9.48;4.57;;;;;;;16.63;100.00;94517.81;5092818;28;20237;-63
2022/05/31 02:38:38;;;;;;;9.65;5.07;;;;;;;16.72;100.00;94521.16;5074030;28;20229;-64
2022/05/31 02:41:03;;;;;;;8.55;5.18;;;;;;;16.76;100.00;94527.53;5092072;28;20195;-64
2022/05/31 02:43:28;;;;;;;8.45;4.95;;;;;;;17.04;100.00;94525.25;5092001;28;20191;-64
2022/05/31 02:45:54;;;;;;;9.55;5.32;;;;;;;17.10;100.00;94532.28;5092045;28;20177;-65
2022/05/31 02:48:20;;;;;;;9.90;4.88;;;;;;;17.11;100.00;94533.88;5092277;28;20550;-62
2022/05/31 02:50:45;;;;;;;9.73;5.00;;;;;;;17.16;100.00;94536.72;5074041;28;20196;-63
2022/05/31 02:53:11;;;;;;;6.78;4.63;;;;;;;17.18;100.00;94532.22;5073845;28;20199;-62
2022/05/31 02:55:36;;;;;;;8.57;4.85;;;;;;;17.15;100.00;94524.84;5092113;28;20317;-63
2022/05/31 02:58:01;;;;;;;7.03;4.50;;;;;;;17.14;100.00;94518.91;5073740;28;20200;-64
2022/05/31 03:00:27;;;;;;;11.88;4.65;;;;;;;17.18;100.00;94532.22;5092336;28;20255;-65
2022/05/31 03:02:52;;;;;;;9.32;4.45;;;;;;;17.27;100.00;94544.03;5091860;28;20664;-65
2022/05/31 03:05:18;;;;;;;13.60;4.55;;;;;;;17.13;100.00;94530.16;5073872;28;20212;-64
2022/05/31 03:07:44;;;;;;;10.20;4.93;;;;;;;17.19;100.00;94547.44;5091926;28;20239;-65
2022/05/31 03:10:09;;;;;;;8.10;4.40;;;;;;;17.10;100.00;94534.84;5092217;28;20272;-60
2022/05/31 03:12:35;;;;;;;10.65;4.95;;;;;;;17.10;100.00;94539.97;5091772;28;20255;-60
2022/05/31 03:15:09;;;;;;;9.85;5.47;;;;;;;16.95;100.00;94521.94;5092159;28;20216;-60
2022/05/31 03:17:43;;;;;;;9.10;5.15;;;;;;;16.98;100.00;94531.88;5091913;28;20645;-62
2022/05/31 03:20:21;;;;;;;13.25;5.40;;;;;;;16.97;100.00;94540.53;5073661;28;20266;-66
2022/05/31 03:23:03;;;;;;;6.75;4.90;;;;;;;16.75;100.00;94536.19;5073563;28;20693;-65
2022/05/31 03:25:30;;;;;;;9.25;5.25;;;;;;;16.76;100.00;94545.50;5092277;28;20295;-64
2022/05/31 03:27:59;;;;;;;7.72;5.50;;;;;;;16.88;100.00;94553.63;5073639;28;20208;-59
2022/05/31 03:30:24;;;;;;;9.32;5.13;;;;;;;16.77;100.00;94550.47;5074089;28;20635;-62
2022/05/31 03:32:51;;;;;;;11.77;5.07;;;;;;;16.78;100.00;94556.41;5091688;28;20643;-62
2022/05/31 03:35:17;;;;;;;6.25;4.97;;;;;;;16.77;100.00;94554.78;5091819;28;20196;-63
2022/05/31 03:37:43;;;;;;;6.07;4.57;;;;;;;16.77;100.00;94555.59;5091569;28;20192;-64
2022/05/31 03:40:09;;;;;;;7.95;5.03;;;;;;;16.69;100.00;94558.22;5073111;28;20188;-63
2022/05/31 03:42:35;;;;;;;7.15;4.88;;;;;;;16.77;100.00;94570.19;5073231;28;20184;-65
2022/05/31 03:45:00;;;;;;;7.53;5.45;;;;;;;16.69;100.00;94571.06;5091677;28;20212;-64
2022/05/31 03:47:26;;;;;;;9.48;5.55;;;;;;;16.78;100.00;94572.63;5091413;28;20225;-65
2022/05/31 03:49:51;;;;;;;7.28;4.55;;;;;;;16.73;100.00;94561.25;5073363;28;20614;-62
2022/05/31 03:52:19;;;;;;;7.07;4.40;;;;;;;16.91;100.00;94584.09;5091374;28;20172;-62
2022/05/31 03:54:45;;;;;;;6.28;4.88;;;;;;;16.82;100.00;94582.53;5091621;28;20185;-66
2022/05/31 03:57:16;;;;;;;12.02;5.22;;;;;;;16.92;100.00;94577.97;5091553;28;20187;-65
2022/05/31 03:59:41;;;;;;;7.68;5.55;;;;;;;16.88;100.00;94579.28;5091561;28;20200;-67
2022/05/31 04:02:07;;;;;;;7.38;5.30;;;;;;;16.73;100.00;94566.38;5091586;28;20271;-63
2022/05/31 04:04:33;;;;;;;12.07;5.43;;;;;;;16.62;100.00;94567.53;5072938;28;20231;-63
2022/05/31 04:06:59;;;;;;;10.15;5.05;;;;;;;16.80;100.00;94569.88;5073259;28;20706;-63
2022/05/31 04:09:24;;;;;;;9.43;5.40;;;;;;;16.82;100.00;94577.41;5077025;28;20211;-63
2022/05/31 04:11:50;;;;;;;8.90;5.18;;;;;;;16.73;100.00;94572.31;5076936;28;20184;-66
2022/05/31 04:14:16;;;;;;;7.20;5.20;;;;;;;16.67;100.00;94572.19;5095025;28;20228;-65
2022/05/31 04:16:41;;;;;;;16.73;5.85;;;;;;;16.61;100.00;94567.72;5094880;28;20176;-64
2022/05/31 04:19:07;;;;;;;9.07;5.63;;;;;;;16.58;100.00;94576.56;5094965;28;20192;-67
2022/05/31 04:21:32;;;;;;;9.57;5.30;;;;;;;16.73;100.00;94580.03;5094790;28;20546;-66
2022/05/31 04:23:58;;;;;;;13.15;6.00;;;;;;;16.85;100.00;94571.94;5094824;28;20215;-66
2022/05/31 04:26:36;;;;;;;9.88;6.55;;;;;;;16.95;100.00;94577.66;5094686;28;20168;-65
2022/05/31 04:29:02;;;;;;;10.55;6.50;;;;;;;17.07;100.00;94578.88;5094402;28;20192;-66
2022/05/31 04:31:27;;;;;;;11.23;6.88;;;;;;;17.06;100.00;94582.38;5094879;28;20236;-63
2022/05/31 04:33:53;;;;;;;8.68;5.95;;;;;;;17.08;100.00;94577.88;5076439;28;20195;-61
2022/05/31 04:36:20;;;;;;;13.65;8.07;;;;;;;17.15;100.00;94582.16;5094330;28;20571;-63
2022/05/31 04:38:46;;;;;;;11.18;7.65;;;;;;;17.21;100.00;94578.13;5094433;28;20670;-65
2022/05/31 04:41:21;;;;;;;15.18;8.25;;;;;;;17.14;100.00;94592.59;5076184;28;20196;-60
2022/05/31 04:43:47;;;;;;;12.95;8.20;;;;;;;17.27;100.00;94585.16;5094395;28;20278;-60
2022/05/31 04:46:17;;;;;;;11.75;8.85;;;;;;;17.26;100.00;94586.09;5094732;28;20276;-60
2022/05/31 04:48:44;;;;;;;21.85;9.73;;;;;;;17.14;100.00;94587.47;5094060;28;20253;-61
2022/05/31 04:51:11;;;;;;;13.45;8.00;;;;;;;17.97;100.00;94595.97;5094596;28;20185;-65
2022/05/31 04:53:36;;;;;;;13.52;7.97;;;;;;;17.83;100.00;94614.75;5075972;28;20245;-64
2022/05/31 04:56:04;;;;;;;16.15;9.13;;;;;;;17.69;100.00;94608.59;5076108;28;20188;-67
2022/05/31 04:58:30;;;;;;;15.73;9.32;;;;;;;17.56;100.00;94608.38;5075815;28;20196;-63
2022/05/31 05:00:56;;;;;;;15.38;8.60;;;;;;;17.50;100.00;94614.22;5076164;28;20222;-60
2022/05/31 05:03:21;;;;;;;17.67;9.00;;;;;;;17.37;100.00;94609.63;5075876;28;20198;-66
2022/05/31 05:05:46;;;;;;;19.40;9.57;;;;;;;17.47;100.00;94617.13;5094048;28;20185;-64
2022/05/31 05:08:12;;;;;;;17.23;9.02;;;;;;;17.41;100.00;94616.00;5093911;28;20204;-63
2022/05/31 05:10:43;;;;;;;17.30;9.63;;;;;;;17.43;100.00;94619.22;5094262;28;20184;-63
2022/05/31 05:13:09;;;;;;;16.55;9.20;;;;;;;17.47;100.00;94610.19;5093918;28;20679;-67
2022/05/31 05:15:39;;;;;;;17.15;8.57;;;;;;;17.57;100.00;94615.13;5093810;28;20192;-63
2022/05/31 05:18:04;;;;;;;14.27;8.30;;;;;;;17.76;100.00;94624.13;5093378;28;20239;-63
2022/05/31 05:20:33;;;;;;;13.23;9.13;;;;;;;17.86;100.00;94625.47;5092910;28;20334;-63
2022/05/31 05:22:58;;;;;;;16.10;8.77;;;;;;;17.85;100.00;94630.81;5093626;28;20254;-65
2022/05/31 05:25:24;;;;;;;16.27;8.80;;;;;;;17.91;100.00;94625.78;5093939;28;20685;-65
2022/05/31 05:27:49;;;;;;;16.25;8.95;;;;;;;18.08;100.00;94631.56;5093374;28;20207;-65
2022/05/31 05:32:59;;;;;;;15.07;8.90;;;;;;;18.21;100.00;94632.53;5093212;28;20654;-63
2022/05/31 05:35:24;;;;;;;17.50;8.57;;;;;;;18.25;100.00;94630.41;5093541;28;20188;-63
2022/05/31 05:37:49;;;;;;;11.13;8.25;;;;;;;18.37;100.00;94634.94;5093022;28;20253;-65
2022/05/31 05:40:15;;;;;;;16.85;8.30;;;;;;;18.80;100.00;94651.38;5092997;28;20207;-65
2022/05/31 05:42:41;;;;;;;10.30;7.28;;;;;;;18.88;100.00;94650.47;5093083;28;20243;-63
2022/05/31 05:45:08;;;;;;;13.75;8.93;;;;;;;18.88;100.00;94656.44;5092772;28;20208;-65
2022/05/31 05:47:33;;;;;;;11.38;6.95;;;;;;;19.59;100.00;94622.13;5093235;28;20185;-62
2022/05/31 05:49:59;;;;;;;15.85;7.13;;;;;;;20.09;100.00;94621.91;5092956;28;20232;-62
2022/05/31 05:52:24;;;;;;;14.20;8.05;;;;;;;20.54;100.00;94637.91;5092746;28;20188;-62
2022/05/31 05:54:49;;;;;;;18.25;6.10;;;;;;;20.98;100.00;94669.31;5092922;28;20184;-61
2022/05/31 05:57:15;;;;;;;13.23;7.68;;;;;;;21.14;100.00;94712.97;5092610;28;20198;-61
2022/05/31 05:59:40;;;;;;;12.45;7.22;;;;;;;21.33;100.00;94673.44;5092797;28;20197;-61
2022/05/31 06:02:17;;;;;;;11.50;5.35;;;;;;;21.70;100.00;94680.69;5074408;28;20177;-61
2022/05/31 06:04:49;;;;;;;8.50;5.25;;;;;;;21.89;100.00;94684.34;5092816;28;20268;-62
2022/05/31 06:07:25;;;;;;;16.33;5.95;;;;;;;21.91;100.00;94749.66;5092717;28;20195;-61
2022/05/31 06:10:00;;;;;;;17.13;6.28;;;;;;;21.97;100.00;94729.94;5092704;28;20556;-62
2022/05/31 06:12:30;;;;;;;15.70;7.78;;;;;;;22.08;100.00;94748.28;5091579;28;20194;-63
2022/05/31 06:15:05;;;;;;;9.63;5.78;;;;;;;22.12;100.00;94717.63;5091345;28;20187;-64
2022/05/31 06:17:38;;;;;;;9.20;5.95;;;;;;;22.25;100.00;94715.03;5074066;28;20164;-61
2022/05/31 06:20:06;;;;;;;13.55;7.65;;;;;;;22.30;100.00;94731.56;5092801;28;20645;-60
2022/05/31 06:22:34;;;;;;;15.27;7.53;;;;;;;22.24;100.00;94749.72;5092448;28;20579;-61
2022/05/31 06:25:00;;;;;;;14.07;6.20;;;;;;;22.28;100.00;94707.66;5092700;28;20212;-61
2022/05/31 06:27:25;;;;;;;10.02;6.53;;;;;;;22.40;100.00;94705.28;5092170;28;20661;-61
2022/05/31 06:29:51;;;;;;;12.43;7.25;;;;;;;22.47;100.00;94773.41;5092391;28;20196;-62
2022/05/31 06:32:17;;;;;;;11.75;5.80;;;;;;;22.31;100.00;94678.75;5092416;28;20180;-60
2022/05/31 06:34:43;;;;;;;14.32;9.05;;;;;;;22.39;100.00;94720.00;5092464;28;20200;-64
2022/05/31 06:37:14;;;;;;;11.85;7.18;;;;;;;22.44;100.00;94707.25;5092097;28;20249;-63
2022/05/31 06:39:41;;;;;;;14.68;6.45;;;;;;;22.48;100.00;94707.66;5091817;28;20689;-63
2022/05/31 06:42:09;;;;;;;11.40;6.30;;;;;;;22.58;100.00;94702.09;5073785;28;20226;-63
2022/05/31 06:44:37;;;;;;;14.23;6.93;;;;;;;22.21;100.00;94678.38;5091811;28;20212;-62
2022/05/31 06:47:03;;;;;;;11.77;6.90;;;;;;;22.49;100.00;94683.31;5092053;28;20658;-64
2022/05/31 06:49:30;;;;;;;9.82;7.07;;;;;;;22.58;100.00;94697.72;5073684;28;20280;-64
2022/05/31 06:57:31;;;;;;;12.23;6.57;;;;;;;22.85;99.99;94727.75;5092225;28;20171;-63
2022/05/31 06:59:56;;;;;;;12.77;8.18;;;;;;;22.85;97.22;94776.22;5091892;28;20554;-64
2022/05/31 07:02:22;;;;;;;10.27;8.00;;;;;;;22.55;97.41;94750.69;5091896;28;20241;-63
2022/05/31 07:04:47;;;;;;;14.82;8.68;;;;;;;22.18;100.00;94685.75;5091666;28;20542;-60
2022/05/31 07:07:13;;;;;;;8.73;6.40;;;;;;;21.76;100.00;94606.63;5073627;28;20176;-61
2022/05/31 07:09:38;;;;;;;13.57;7.50;;;;;;;21.84;100.00;94595.31;5091986;28;20271;-66
2022/05/31 07:12:04;;;;;;;9.27;7.15;;;;;;;22.06;100.00;94625.19;5091648;28;20196;-64
2022/05/31 07:14:30;;;;;;;13.23;8.15;;;;;;;22.28;100.00;94631.75;5073312;28;20219;-64
2022/05/31 07:16:55;;;;;;;14.15;7.93;;;;;;;22.44;100.00;94665.00;5073500;28;20254;-62
2022/05/31 07:19:21;;;;;;;9.15;5.15;;;;;;;22.65;100.00;94640.66;5091552;28;20630;-60
2022/05/31 07:21:47;;;;;;;10.93;5.78;;;;;;;22.93;100.00;94685.22;5091525;28;20696;-61
2022/05/31 07:24:12;;;;;;;10.07;7.90;;;;;;;23.02;100.00;94705.56;5091327;28;20211;-60
2022/05/31 07:26:39;;;;;;;16.70;7.68;;;;;;;22.94;100.00;94676.47;5091560;28;20183;-60
2022/05/31 07:29:05;;;;;;;11.35;6.20;;;;;;;23.06;100.00;94675.63;5091372;28;20269;-61
2022/05/31 07:31:31;;;;;;;14.55;6.70;;;;;;;23.24;100.00;94685.31;5091442;28;20176;-61
2022/05/31 07:33:58;;;;;;;14.57;7.57;;;;;;;23.55;100.00;94720.97;5091825;28;20204;-61
2022/05/31 07:36:24;;;;;;;15.18;9.07;;;;;;;23.64;98.90;94748.25;5073355;28;20188;-61
2022/05/31 07:38:49;;;;;;;9.95;5.18;;;;;;;23.78;100.00;94713.41;5073290;28;20203;-61
2022/05/31 07:41:15;;;;;;;10.30;6.30;;;;;;;23.88;99.08;94726.75;5091254;28;20214;-62
2022/05/31 07:43:40;;;;;;;13.85;6.38;;;;;;;24.10;97.49;94751.41;5094228;28;20196;-62
2022/05/31 07:46:10;;;;;;;9.18;5.50;;;;;;;24.27;96.89;94757.69;5095401;28;20187;-62
2022/05/31 07:48:38;;;;;;;11.23;9.00;;;;;;;24.35;95.07;94780.03;5076989;28;20275;-61
2022/05/31 07:51:05;;;;;;;9.13;6.18;;;;;;;24.23;95.47;94750.53;5095906;28;20558;-64
2022/05/31 07:53:31;;;;;;;10.80;6.22;;;;;;;24.11;96.53;94724.44;5095276;28;20204;-62
2022/05/31 07:56:00;;;;;;;10.60;6.13;;;;;;;24.02;95.97;94729.06;5095123;28;20180;-61
2022/05/31 07:58:32;;;;;;;11.45;6.05;;;;;;;23.83;95.17;94747.38;5094858;28;20204;-62
2022/05/31 08:01:06;;;;;;;10.38;5.25;;;;;;;24.16;95.84;94730.59;5095079;28;20336;-61
2022/05/31 08:03:33;;;;;;;13.18;5.90;;;;;;;23.97;94.45;94752.28;5094920;28;20215;-59
2022/05/31 08:06:03;;;;;;;10.93;5.68;;;;;;;24.04;94.86;94737.47;5095388;28;20246;-62
2022/05/31 08:08:28;;;;;;;17.33;8.70;;;;;;;24.06;92.51;94768.44;5076503;28;20204;-61
2022/05/31 08:10:54;;;;;;;8.95;5.28;;;;;;;23.91;97.44;94679.59;5095488;28;20195;-64
2022/05/31 08:13:20;;;;;;;13.48;6.30;;;;;;;23.97;96.00;94712.53;5094578;28;20184;-61
2022/05/31 08:15:46;;;;;;;10.85;6.60;;;;;;;24.17;95.71;94721.81;5076888;28;20188;-62
2022/05/31 08:18:12;;;;;;;8.95;6.15;;;;;;;24.03;94.66;94741.09;5076506;28;20705;-62
2022/05/31 08:20:39;;;;;;;7.85;4.68;;;;;;;24.25;96.38;94704.34;5094998;28;20187;-61
2022/05/31 08:23:05;;;;;;;10.70;5.95;;;;;;;24.32;95.42;94712.91;5094574;28;20715;-62
2022/05/31 08:25:33;;;;;;;5.88;4.90;;;;;;;24.54;95.16;94722.72;5094599;28;20219;-61
2022/05/31 08:28:00;;;;;;;9.65;5.70;;;;;;;24.65;92.79;94763.59;5094595;28;20196;-62
2022/05/31 08:30:26;;;;;;;12.90;5.43;;;;;;;24.59;89.84;94808.66;5076283;28;20176;-61
2022/05/31 08:32:52;;;;;;;10.98;5.68;;;;;;;24.47;87.12;94843.34;5076497;28;20207;-62
2022/05/31 08:35:18;;;;;;;9.48;5.47;;;;;;;24.54;86.55;94851.91;5094354;28;20215;-61
2022/05/31 08:37:44;;;;;;;6.95;4.65;;;;;;;24.70;90.64;94762.97;5094399;28;20223;-61
2022/05/31 08:40:11;;;;;;;13.13;6.90;;;;;;;24.75;88.35;94789.94;5094440;28;20196;-61
2022/05/31 08:42:51;;;;;;;10.15;4.80;;;;;;;24.71;91.94;94718.53;5076356;28;20184;-60
2022/05/31 08:45:37;;;;;;;13.38;6.50;;;;;;;24.68;89.50;94765.78;5094695;28;20315;-61
2022/05/31 08:48:25;;;;;;;8.10;5.07;;;;;;;24.57;90.48;94747.47;5076098;28;20649;-60
2022/05/31 08:56:56;;;;;;;10.57;5.40;;;;;;;24.53;88.70;94741.91;5094224;28;20219;-60
2022/05/31 08:56:58;;;;;;;10.52;5.78;;;;;;;24.52;89.98;94729.13;5094095;28;20193;-62
2022/05/31 08:59:48;;;;;;;14.82;6.75;;;;;;;24.70;91.74;94695.34;5075926;28;20619;-65
2022/05/31 09:02:23;;;;;;;11.50;6.68;;;;;;;24.70;91.16;94709.16;5076079;28;20601;-62
2022/05/31 09:05:03;;;;;;;12.77;6.40;;;;;;;24.72;91.90;94691.53;5094169;28;20250;-61
2022/05/31 09:07:42;;;;;;;11.75;5.78;;;;;;;24.75;90.48;94722.31;5093940;28;20168;-61
2022/05/31 09:10:23;;;;;;;10.48;6.35;;;;;;;24.88;86.41;94792.44;5094234;28;20253;-61
2022/05/31 09:12:58;;;;;;;16.98;5.20;;;;;;;24.65;85.55;94801.81;5093762;28;20673;-60
2022/05/31 09:15:41;;;;;;;6.72;5.13;;;;;;;24.74;88.07;94744.16;5094103;28;20668;-62
2022/05/31 09:18:28;;;;;;;9.75;4.68;;;;;;;24.96;84.41;94833.81;5075491;28;20205;-63
2022/05/31 09:20:56;;;;;;;12.02;5.45;;;;;;;25.15;84.96;94781.78;5093773;28;20184;-61
2022/05/31 09:23:35;;;;;;;11.90;5.28;;;;;;;25.25;80.44;94839.34;5093465;28;20553;-61
2022/05/31 09:26:22;;;;;;;9.95;4.90;;;;;;;25.11;78.95;94820.44;5093166;28;20202;-60
2022/05/31 09:28:57;;;;;;;9.00;4.85;;;;;;;25.14;74.13;94817.41;5093622;28;20709;-60
2022/05/31 09:32:04;;;;;;;5.82;4.90;;;;;;;25.51;74.62;94784.41;5093413;28;20201;-60
2022/05/31 09:34:59;;;;;;;9.02;5.13;;;;;;;25.66;74.38;94779.63;5075298;28;20228;-62
2022/05/31 09:37:47;;;;;;;9.60;5.30;;;;;;;25.93;75.62;94747.00;5093296;28;20177;-62
2022/05/31 09:40:42;;;;;;;10.35;5.47;;;;;;;26.06;75.49;94731.16;5093159;28;20256;-64
2022/05/31 09:43:20;;;;;;;12.48;5.63;;;;;;;26.19;74.04;94774.53;5074906;28;20200;-64
2022/05/31 09:46:27;;;;;;;10.00;4.40;;;;;;;26.35;75.33;94738.19;5075028;28;20712;-61
2022/05/31 09:48:53;;;;;;;5.80;5.10;;;;;;;26.53;75.30;94719.03;5026470;28;20208;-62
2022/05/31 09:51:31;;;;;;;8.40;4.72;;;;;;;26.61;73.66;94771.69;5093511;28;20246;-61
2022/05/31 09:59:29;;;;;;;6.38;3.80;;;;;;;26.50;66.75;94824.59;5093224;28;20353;-60
2022/05/31 10:02:02;;;;;;;8.35;4.78;;;;;;;26.41;66.82;94825.97;5092668;28;20556;-62
2022/05/31 10:04:30;;;;;;;18.40;4.47;;;;;;;26.40;68.32;94780.00;5092745;28;20661;-63
2022/05/31 10:07:11;;;;;;;9.13;4.47;;;;;;;26.36;65.99;94840.69;5073933;28;20172;-63
2022/05/31 10:09:43;;;;;;;9.85;4.95;;;;;;;26.18;64.41;94870.19;5092632;28;20212;-62
2022/05/31 10:12:24;;;;;;;12.50;5.13;;;;;;;26.34;63.57;94864.34;5092542;28;20184;-64
2022/05/31 10:14:51;;;;;;;10.50;4.90;;;;;;;26.57;65.44;94809.66;5092345;28;20183;-62
2022/05/31 10:17:37;;;;;;;14.57;5.40;;;;;;;26.82;66.58;94761.72;5092456;28;20186;-63
2022/05/31 10:20:24;;;;;;;8.93;4.50;;;;;;;27.06;64.76;94808.50;5092726;28;20678;-62
2022/05/31 10:22:56;;;;;;;7.03;3.80;;;;;;;27.34;66.44;94763.41;5092370;28;20200;-60
2022/05/31 10:25:29;;;;;;;8.90;3.70;;;;;;;27.66;63.19;94829.91;5092562;28;20257;-61
2022/05/31 10:28:04;;;;;;;10.63;4.03;;;;;;;27.72;60.09;94862.97;5092541;28;20219;-61
2022/05/31 10:30:32;;;;;;;7.20;4.00;;;;;;;27.51;58.83;94868.00;5092827;28;20184;-61
2022/05/31 10:33:03;;;;;;;6.00;3.70;;;;;;;27.73;59.13;94840.25;5092523;28;20196;-61
2022/05/31 10:35:35;;;;;;;6.95;4.30;;;;;;;27.84;59.59;94847.25;5074029;28;20463;-63
2022/05/31 10:38:25;;;;;;;9.48;4.30;;;;;;;27.68;54.01;94957.72;5092187;28;20583;-67
2022/05/31 10:40:56;;;;;;;4.57;3.63;;;;;;;27.89;53.85;94920.56;5091948;28;20192;-65
2022/05/31 10:43:25;;;;;;;10.73;4.03;;;;;;;28.03;55.30;94877.47;5092225;28;20196;-64
2022/05/31 10:45:53;;;;;;;6.20;4.00;;;;;;;27.97;54.06;94891.47;5092610;28;20676;-66
2022/05/31 10:48:18;;;;;;;8.77;3.63;;;;;;;27.94;56.27;94827.34;5092085;28;20195;-62
2022/05/31 10:51:11;;;;;;;6.88;3.70;;;;;;;28.38;57.58;94785.81;5092600;28;20530;-61
2022/05/31 10:54:04;;;;;;;9.18;3.70;;;;;;;28.68;58.17;94771.44;5092107;28;20192;-62
2022/05/31 10:56:46;;;;;;;12.32;3.88;;;;;;;29.14;57.88;94791.22;5092144;28;20779;-62
2022/05/31 10:59:18;;;;;;;9.85;3.63;;;;;;;28.91;52.35;94902.16;5092095;28;20290;-61
2022/05/31 11:01:43;;;;;;;8.02;3.78;;;;;;;28.99;51.12;94925.31;5092035;28;20176;-60
2022/05/31 11:04:08;;;;;;;8.43;3.90;;;;;;;29.05;52.55;94871.19;5073559;28;20235;-62
2022/05/31 11:06:57;;;;;;;6.30;3.00;;;;;;;29.27;50.48;94916.63;5073951;28;20188;-61
2022/05/31 11:12:42;;;;;;;6.85;3.55;;;;;;;29.58;51.41;94826.13;5092062;28;20203;-64
2022/05/31 11:15:29;;;;;;;6.93;3.47;;;;;;;30.05;48.83;94894.69;5092233;28;20219;-64
2022/05/31 11:18:00;;;;;;;7.68;3.95;;;;;;;30.30;48.98;94868.78;5095357;28;20192;-61
2022/05/31 11:20:34;;;;;;;4.60;3.15;;;;;;;29.94;45.97;94916.59;5096506;28;20208;-65
2022/05/31 11:23:18;;;;;;;7.15;3.63;;;;;;;29.65;45.08;94860.84;5077830;28;20639;-63
2022/05/31 11:26:12;;;;;;;6.50;3.38;;;;;;;29.43;45.84;94808.38;5077953;28;20219;-63
2022/05/31 11:29:09;;;;;;;6.45;3.67;;;;;;;29.71;45.95;94789.09;5096056;28;20196;-62
2022/05/31 11:32:09;;;;;;;9.75;3.33;;;;;;;30.11;45.27;94786.94;5095904;28;20242;-61
2022/05/31 11:34:53;;;;;;;4.55;3.13;;;;;;;29.93;43.41;94799.59;5062908;28;20575;-64
2022/05/31 11:37:28;;;;;;;8.63;3.10;;;;;;;29.74;43.42;94781.56;5095804;28;20171;-64
2022/05/31 11:40:17;;;;;;;8.73;2.97;;;;;;;29.92;46.11;94704.38;5077419;28;20197;-62
2022/05/31 11:43:09;;;;;;;5.30;4.03;;;;;;;30.24;47.31;94686.06;5095801;28;20262;-63
2022/05/31 11:46:27;;;;;;;7.30;3.83;;;;;;;30.32;49.87;94647.03;5077485;28;20216;-61
2022/05/31 11:48:55;;;;;;;4.85;2.72;;;;;;;29.50;43.74;94751.38;5047765;28;20200;-61
2022/05/31 11:51:27;;;;;;;4.10;2.53;;;;;;;29.46;43.89;94745.03;5077524;28;20192;-62
2022/05/31 11:54:11;;;;;;;5.40;2.92;;;;;;;29.71;42.72;94760.25;5095410;28;20271;-61
2022/05/31 11:56:45;;;;;;;4.50;2.42;;;;;;;29.57;44.57;94702.16;5095493;28;20181;-60
2022/05/31 11:59:38;;;;;;;2.92;2.65;;;;;;;29.82;44.94;94699.84;5095271;28;20188;-63
2022/05/31 12:02:20;;;;;;;4.88;2.33;;;;;;;29.64;42.99;94743.91;5095054;28;20283;-61
2022/05/31 12:04:54;;;;;;;3.35;2.40;;;;;;;29.65;41.51;94762.03;5076971;28;20306;-62